KBWD/BWD METAR and TAF weather

Enter ICAO airport designator
Station Type Date Time Source
KBWD METAR 2021/04/14 19:15 UTC NOAA

KBWD 141915Z AUTO 08008KT 050V120 10SM SCT035 23/13 A3000 RMK AO1


Station Type Date Time Source
KBWD Decoded METAR 2021/04/14 19:15 UTC NOAA

Brownwood, Brownwood Regional Airport, TX, United States (KBWD) 31-48N 098-57W
Apr 14, 2021 - 03:15 PM EDT / 2021.04.14 1915 UTC
Wind: from the E (080 degrees) at 9 MPH (8 KT) (direction variable):0
Visibility: 10 mile(s):0
Sky conditions: partly cloudy
Temperature: 73 F (23 C)
Dew Point: 55 F (13 C)
Relative Humidity: 53%
Pressure (altimeter): 30 in. Hg (1015 hPa)
ob: KBWD 141915Z AUTO 08008KT 050V120 10SM SCT035 23/13 A3000 RMK AO1
cycle: 19

Station Type Date Time Source
KBWD TAF UTC NOAA

Error!

Example: see airport list